Bagwell, TX (75412)

10:33 PM CST on February 28, 2015 (GMT -0600)
Idabel | Change Station
CLOSE
Current Station
Airport
Location: Idabel,
Elevation: 472 ft
Nearby Weather Stations
Active Advisory: Hydrologic Statement Active Notice: Record Report, Local Storm Report

Elev 472 ft 33.91 °N, 94.85 °W | Updated 18 minutes ago

Overcast
Overcast
32 °F
Feels Like 28 °F
N
5
Wind Variable Wind from North

Today
High -- | Low -- °F
--% Chance of Precip.
Yesterday
High -- | Low -- °F
Precip. -- in
6:50 AM 6:16 PM
Waxing Gibbous, 82% visible
Pressure 30.37 in
Visibility 3.0 miles
Clouds Scattered Clouds 600 ft
Mostly Cloudy 1200 ft
Overcast 3300 ft
Windchill 28 °F
Dew Point 32 °F
Humidity 100%
Rainfall 0.25 in
Snow Depth Not available.
UV 0 out of 12
Pollen 6.20 out of 12
Air Quality Not available.
Flu Activity Not available.
METAR K4O4 010415Z AUTO 36004KT 3SM SCT006 BKN012 OVC033 00/00 A3037 RMK AO2

More Conditions Fewer Conditions

Pressure 30.37 in
Visibility 3.0 miles
Clouds Scattered Clouds 600 ft
Mostly Cloudy 1200 ft
Overcast 3300 ft
Windchill 28 °F
Dew Point 32 °F
Humidity 100%
Rainfall 0.25 in
Snow Depth Not available.
UV 0 out of 12
Pollen 6.20 out of 12
Air Quality Not available.
Flu Activity Not available.
METAR K4O4 010415Z AUTO 36004KT 3SM SCT006 BKN012 OVC033 00/00 A3037 RMK AO2

More Conditions Fewer Conditions

Nowcast | as of 9:36 PM CST on February 28, 2015

Scattered areas of light freezing rain or drizzle will be possible across portions of extreme southeast Oklahoma and extreme northeast Texas through much of the evening. Temperatures are at or just below freezing across these locations and precipitation that may reach the surface may be in the form of freezing rain.The freezing rain could create slick spots on area roadways especially bridges and overpasses. Motorists are urged to use caution this evening.

×

10-Day Weather Forecast

Almanac

Astronomy

Feb. 28, 2015 Rise Set
Actual Time
Civil Twilight
Nautical Twilight
Astronomical Twilight
Moon
Length of Visible Light
Length of Day
Tomorrow will be .
, % of the Moon is Illuminated

Today's Extremes

State Highs State Lows

Community

WunderPhotos

Upload Photos

1,801,318 photos uploaded!

WunderBlogs® & News

Nearby

Air Quality

  Air Quality AQ Index Pollutant
Not available.

Snow Depth

Station Depth Elevation

Earthquake Activity

City Distance Mag. Time & Date
Minimum magnitude displayed is 2.5.

Coastal Water Temperatures

Place Temperature

Nearby Weather Stations

Hydrologic Statement
Statement as of 7:38 AM CST on February 28, 2015

Forecast information for
Sulphur river below Talco.
* At 7:15 am Saturday the stage was 16.8 feet.
* Flood stage is 20.0 feet.
* Forecast... the river will rise to near 14.2 feet this afternoon.


Lat... Lon 3342 9530 3340 9481 3328 9465 3327 9466 3336 9530